Alpha, Ohio
Current Conditions -  °F | °C
As of 6:58 PM on Saturday 25 Oct 2014 (Local Time) from KFFO Reporting Station
Clear Clear  
Wind Chill: 68°   Ceiling: Unl
Heat Index: 68°   Visibility: 10mi
Dew Point: 49°   Wind: 9mph
Humidity: 51%   Direction: 250°WSW
Pressure: 29.87"   Gusts: NA
Location:  39.71°N, 84.02°W
Report Text: KFFO 252258Z AUTO 25008KT 10SM CLR 20/09 A2987 RMK AO2 SLP117 T01980094
Loading
Personal Weather Stations






























Interactive Weather Map
Tropical Storm Tracking
New forecast layout! Learn more

10-Day Weather Forecast

Advertisements
Track Severe Weather on mobile